ADDS METAR Data INFO
IDs: Format: Raw Decoded Include TAF

Data at: 1612 UTC 14 Aug 2018

KDRT 141553Z AUTO 14011KT 10SM OVC018 27/23 A2994 RMK AO2 SLP125 T02670233
KDRT 141453Z AUTO 12006KT 10SM OVC021 25/23 A2994 RMK AO2 SLP124 T02500228 51009
KDRT 141353Z AUTO 13008KT 10SM OVC023 24/23 A2994 RMK AO2 SLP125 T02440228
KDRT 141253Z AUTO 12007KT 10SM OVC023 24/22 A2993 RMK AO2 SLP120 T02390222
KDRT 141241Z AUTO 12008KT 10SM BKN023 24/22 A2993 RMK AO2 T02390222
KDRT 141153Z AUTO 10009KT 10SM CLR 24/23 A2992 RMK AO2 SLP114 70003 T02390228 10239 20228 51002 $
KDRT 141053Z AUTO 09006KT 10SM CLR 23/23 A2991 RMK AO2 SLP114 T02330228 $
KDRT 140953Z AUTO 12003KT 10SM CLR 23/23 A2992 RMK AO2 SLP115 T02280228 $
KDRT 140853Z AUTO 12005KT 10SM SCT050 23/23 A2991 RMK AO2 SLP112 T02330228 58001 $
KDRT 140753Z AUTO 09006KT 10SM FEW060 23/23 A2991 RMK AO2 SLP111 T02330228 $
KDRT 140653Z AUTO 07007KT 10SM FEW070 FEW085 23/23 A2991 RMK AO2 SLP114 T02330228 $
KDRT 140553Z AUTO 06005KT 10SM SCT075 23/23 A2991 RMK AO2 SLP113 60002 T02330228 10294 20233 403110228 55006 $
KDRT 140453Z AUTO 09007KT 050V120 10SM CLR 23/23 A2991 RMK AO2 SLP113 T02330228 $
KDRT 140353Z AUTO 15006KT 10SM CLR 23/23 A2991 RMK AO2 RAE0259 SLP113 P0000 T02330228 $
KDRT 140253Z AUTO 15006KT 10SM -RA CLR 23/23 A2993 RMK AO2 SLP121 P0000 60002 T02330228 51014 $
KDRT 140153Z AUTO 29004KT 10SM -RA FEW060 SCT085 SCT100 23/23 A2991 RMK AO2 SLP115 P0002 T02330228 $
KDRT 140053Z AUTO 23007KT 10SM -RA FEW050 BKN095 OVC110 25/23 A2991 RMK AO2 RAB19 SLP114 P0000 T02500228 $
KDRT 132353Z AUTO 10004KT 10SM CLR 29/23 A2989 RMK AO2 LTG DSNT S SLP104 T02940228 10311 20272 $
KDRT 132253Z AUTO 14007KT 10SM CLR 30/23 A2990 RMK AO2 SLP108 T03000228 $
KDRT 132153Z AUTO 12009KT 10SM 29/23 A2989 RMK AO2 LTG DSNT W SLP106 T02940233 $
KDRT 132053Z AUTO 11010KT 9SM BKN036 BKN049 30/23 A2990 RMK AO2 SLP110 T03000228 58027
KDRT 131953Z AUTO 13009G15KT 10SM CLR 30/23 A2993 RMK AO2 SLP118 T03000233
KDRT 131853Z AUTO 16011G16KT 8SM FEW032 28/23 A2996 RMK AO2 LTG DSNT E SLP130 T02830233
KDRT 131832Z AUTO 14006KT 8SM FEW023 SCT031 28/23 A2997 RMK AO2 LTG DSNT E T02830233
KDRT 131753Z AUTO 14006KT 9SM SCT020 BKN027 BKN032 27/23 A2999 RMK AO2 SLP138 60001 T02670228 10272 20228 58001
KDRT 131653Z AUTO 19003KT 8SM FEW013 OVC018 25/24 A3000 RMK AO2 RAE41 SLP144 P0001 T02500239
KDRT 131635Z AUTO 16006KT 7SM -RA BKN016 OVC080 25/24 A3000 RMK AO2 P0001 T02500239
KDRT 131553Z AUTO 14006KT 6SM -RA BR OVC012 24/23 A3000 RMK AO2 RAB50 SLP142 P0000 T02440233
KDRT 131511Z AUTO 12006KT 10SM OVC010 24/23 A2999 RMK AO2 CIG 008V013 T02390233
KDRT 131453Z AUTO 12005KT 10SM OVC009 24/23 A2999 RMK AO2 CIG 008V013 SLP140 T02390233 53003
KDRT 131353Z AUTO 12004KT 10SM OVC008 23/23 A2998 RMK AO2 SLP138 T02330228
KDRT 131307Z AUTO 11004KT 10SM BKN009 OVC120 23/23 A2998 RMK AO2 T02280228 $
KDRT 131253Z AUTO 11005KT 10SM BKN010 OVC120 23/23 A2998 RMK AO2 CIG 006V011 SLP137 T02280228 $
KDRT 131213Z AUTO 13005KT 10SM BKN012 OVC120 23/23 A2998 RMK AO2 T02280228 $
KDRT 131205Z AUTO 12006KT 10SM SCT012 OVC120 23/23 A2998 RMK AO2 T02280228 $
KDRT 131153Z AUTO 12006KT 10SM BKN012 BKN050 OVC120 23/23 A2998 RMK AO2 SLP136 60001 70047 T02280228 10239 20228 53002 $
KDRT 131123Z AUTO 10007KT 10SM OVC010 23/23 A2998 RMK AO2 CIG 007V013 T02280228 $
KDRT 131053Z AUTO 11004KT 10SM BKN009 OVC050 23/23 A2997 RMK AO2 CIG 007V014 SLP134 T02330233 $
KDRT 131003Z AUTO 10005KT 9SM SCT006 SCT021 OVC050 23/23 A2996 RMK AO2 T02330233 $
KDRT 130953Z AUTO 10007KT 9SM BKN007 BKN022 OVC050 23/23 A2996 RMK AO2 SLP132 T02330233 $
KDRT 130906Z AUTO 10006KT 9SM SCT008 BKN016 OVC025 23/23 A2997 RMK AO2 T02330233 $
KDRT 130853Z AUTO 9SM BKN009 OVC012 23/23 A2997 RMK AO2 CIG 006V010 SLP135 60001 T02330233 58005 $
KDRT 130826Z AUTO 10005KT 9SM BKN007 23/23 A2997 RMK AO2 T02330233 $
KDRT 130753Z AUTO 08007KT 10SM BKN010 BKN017 OVC043 23/23 A2997 RMK AO2 SLP136 T02330233 $
KDRT 130653Z AUTO 10005KT 10SM BKN013 24/24 A2999 RMK AO2 RAB0554E41 SLP141 P0001 T02390239 $
KDRT 130553Z AUTO 08004KT 10SM FEW040 24/24 A2999 RMK AO2 SLP139 60003 T02440244 10261 20244 402610228 51002 $
KDRT 130513Z AUTO 10SM FEW025 SCT033 BKN042 24/24 A2998 RMK AO2 T02440244 $
KDRT 130453Z AUTO 00000KT 10SM SCT018 BKN024 OVC042 24/24 A2999 RMK AO2 RAE30B36E47 SLP140 P0002 T02440244 $
KDRT 130434Z AUTO 00000KT 10SM BKN020 BKN060 OVC070 24/24 A2999 RMK AO2 RAE30 CIG 015V027 P0002 T02440239 $
KDRT 130427Z AUTO 00000KT 7SM -RA SCT022 BKN060 OVC090 24/24 A2999 RMK AO2 P0002 T02440239 $